createdAt,value
2023-05-09T00:00:56.765Z,602.00
2023-05-09T00:01:56.797Z,600.00
2023-05-09T00:02:56.805Z,601.00
2023-05-09T00:03:56.788Z,602.00
2023-05-09T00:04:56.781Z,603.00
2023-05-09T00:05:56.778Z,603.00
2023-05-09T00:06:56.778Z,602.00
2023-05-09T00:07:56.793Z,599.00
2023-05-09T00:08:56.790Z,600.00
2023-05-09T00:09:56.774Z,598.00
2023-05-09T00:10:56.967Z,599.00
2023-05-09T00:11:56.789Z,599.00
2023-05-09T00:12:56.995Z,599.00
2023-05-09T00:13:56.811Z,600.00
2023-05-09T00:14:56.848Z,599.00
2023-05-09T00:15:56.806Z,597.00
2023-05-09T00:16:56.847Z,599.00
2023-05-09T00:17:56.917Z,599.00
2023-05-09T00:18:56.908Z,597.00
2023-05-09T00:19:56.951Z,597.00
2023-05-09T00:20:56.997Z,597.00
2023-05-09T00:21:57.020Z,596.00
2023-05-09T00:22:57.064Z,595.00
2023-05-09T00:23:57.100Z,593.00
2023-05-09T00:24:57.154Z,593.00
2023-05-09T00:25:57.179Z,594.00
2023-05-09T00:26:57.346Z,594.00
2023-05-09T00:27:57.257Z,596.00
2023-05-09T00:28:57.305Z,598.00
2023-05-09T00:29:57.362Z,596.00
2023-05-09T00:30:57.392Z,593.00
2023-05-09T00:31:57.472Z,593.00
2023-05-09T00:32:57.543Z,594.00
2023-05-09T00:33:57.516Z,594.00
2023-05-09T00:34:57.555Z,593.00
2023-05-09T00:35:57.605Z,592.00
2023-05-09T00:36:57.625Z,592.00
2023-05-09T00:37:57.669Z,591.00
2023-05-09T00:38:57.719Z,589.00
2023-05-09T00:39:57.777Z,587.00
2023-05-09T00:40:57.806Z,586.00
2023-05-09T00:41:58.013Z,585.00
2023-05-09T00:42:58.012Z,585.00
2023-05-09T00:43:57.926Z,582.00
2023-05-09T00:44:57.965Z,584.00
2023-05-09T00:45:58.020Z,585.00
2023-05-09T00:46:58.042Z,584.00
2023-05-09T00:47:58.123Z,584.00
2023-05-09T00:48:58.129Z,582.00
2023-05-09T00:49:58.214Z,582.00
2023-05-09T00:50:58.177Z,583.00
2023-05-09T00:51:58.215Z,583.00
2023-05-09T00:52:58.256Z,582.00
2023-05-09T00:53:58.300Z,580.00
2023-05-09T00:54:58.330Z,578.00
2023-05-09T00:55:58.372Z,577.00
2023-05-09T00:56:58.397Z,578.00
2023-05-09T00:57:58.446Z,578.00
2023-05-09T00:58:58.626Z,578.00
2023-05-09T00:59:58.517Z,577.00
2023-05-09T01:00:58.600Z,574.00
2023-05-09T01:01:58.606Z,577.00
2023-05-09T01:02:58.756Z,576.00
2023-05-09T01:03:58.677Z,575.00
2023-05-09T01:04:58.698Z,573.00
2023-05-09T01:05:58.747Z,574.00
2023-05-09T01:06:58.777Z,574.00
2023-05-09T01:07:58.811Z,571.00
2023-05-09T01:08:58.884Z,572.00
2023-05-09T01:09:58.888Z,573.00
2023-05-09T01:10:59.120Z,574.00
2023-05-09T01:11:58.987Z,571.00
2023-05-09T01:12:59.093Z,572.00
2023-05-09T01:13:59.067Z,575.00
2023-05-09T01:14:59.227Z,574.00
2023-05-09T01:15:59.179Z,575.00
2023-05-09T01:16:59.196Z,575.00
2023-05-09T01:17:59.308Z,572.00
2023-05-09T01:18:59.285Z,571.00
2023-05-09T01:19:59.328Z,571.00
2023-05-09T01:20:59.376Z,574.00
2023-05-09T01:21:59.410Z,573.00
2023-05-09T01:22:59.451Z,573.00
2023-05-09T01:23:59.507Z,575.00
2023-05-09T01:24:59.539Z,574.00
2023-05-09T01:25:59.584Z,571.00
2023-05-09T01:26:59.642Z,571.00
2023-05-09T01:27:59.667Z,572.00
2023-05-09T01:28:59.714Z,572.00
2023-05-09T01:29:59.745Z,572.00
2023-05-09T01:30:59.935Z,569.00
2023-05-09T01:31:59.847Z,570.00
2023-05-09T01:32:59.953Z,569.00
2023-05-09T01:33:59.921Z,569.00
2023-05-09T01:34:59.968Z,571.00
2023-05-09T01:36:00.006Z,569.00
2023-05-09T01:37:00.053Z,568.00
2023-05-09T01:38:00.105Z,569.00
2023-05-09T01:39:00.140Z,569.00
2023-05-09T01:40:00.322Z,569.00
2023-05-09T01:41:00.217Z,571.00
2023-05-09T01:42:00.255Z,568.00
2023-05-09T01:43:00.299Z,567.00
2023-05-09T01:44:00.377Z,567.00
2023-05-09T01:45:00.370Z,567.00
2023-05-09T01:46:00.423Z,564.00
2023-05-09T01:47:00.662Z,564.00
2023-05-09T01:48:00.896Z,561.00
2023-05-09T01:49:00.894Z,562.00
2023-05-09T01:50:00.893Z,560.00
2023-05-09T01:51:00.891Z,562.00
2023-05-09T01:52:00.902Z,561.00
2023-05-09T01:53:00.897Z,563.00
2023-05-09T01:54:00.903Z,561.00
2023-05-09T01:55:00.900Z,557.00
2023-05-09T01:56:00.907Z,556.00
2023-05-09T01:57:00.903Z,554.00
2023-05-09T01:58:00.898Z,553.00
2023-05-09T01:59:00.937Z,555.00
2023-05-09T02:00:00.980Z,553.00
2023-05-09T02:01:01.041Z,553.00
2023-05-09T02:02:01.076Z,554.00
2023-05-09T02:03:01.376Z,556.00
2023-05-09T02:04:01.176Z,551.00
2023-05-09T02:05:01.210Z,552.00
2023-05-09T02:06:01.268Z,554.00
2023-05-09T02:07:01.308Z,555.00
2023-05-09T02:08:01.414Z,555.00
2023-05-09T02:09:01.564Z,557.00
2023-05-09T02:10:01.438Z,555.00
2023-05-09T02:11:01.480Z,555.00
2023-05-09T02:12:01.526Z,554.00
2023-05-09T02:13:01.603Z,552.00
2023-05-09T02:14:01.617Z,550.00
2023-05-09T02:15:01.656Z,549.00
2023-05-09T02:16:02.100Z,549.00
2023-05-09T02:17:02.134Z,549.00
2023-05-09T02:18:02.161Z,548.00
2023-05-09T02:19:02.230Z,549.00
2023-05-09T02:20:02.099Z,551.00
2023-05-09T02:21:02.153Z,552.00
2023-05-09T02:22:02.097Z,554.00
2023-05-09T02:23:02.104Z,553.00
2023-05-09T02:24:02.110Z,551.00
2023-05-09T02:25:02.104Z,549.00
2023-05-09T02:26:02.115Z,548.00
2023-05-09T02:27:02.167Z,548.00
2023-05-09T02:28:02.214Z,550.00
2023-05-09T02:29:02.263Z,549.00
2023-05-09T02:30:02.298Z,547.00
2023-05-09T02:31:02.341Z,545.00
2023-05-09T02:32:02.418Z,543.00
2023-05-09T02:33:02.485Z,544.00
2023-05-09T02:34:02.487Z,545.00
2023-05-09T02:35:02.638Z,549.00
2023-05-09T02:36:02.568Z,550.00
2023-05-09T02:37:02.603Z,549.00
2023-05-09T02:38:02.714Z,548.00
2023-05-09T02:39:02.884Z,546.00
2023-05-09T02:40:02.741Z,547.00
2023-05-09T02:41:02.784Z,548.00
2023-05-09T02:42:02.834Z,547.00
2023-05-09T02:43:02.861Z,547.00
2023-05-09T02:44:02.916Z,547.00
2023-05-09T02:45:02.964Z,549.00
2023-05-09T02:46:03.028Z,548.00
2023-05-09T02:47:03.052Z,548.00
2023-05-09T02:48:03.136Z,546.00
2023-05-09T02:49:03.139Z,546.00
2023-05-09T02:50:03.184Z,546.00
2023-05-09T02:51:03.361Z,547.00
2023-05-09T02:52:03.285Z,548.00
2023-05-09T02:53:03.349Z,547.00
2023-05-09T02:54:03.408Z,545.00
2023-05-09T02:55:03.424Z,544.00
2023-05-09T02:56:03.467Z,543.00
2023-05-09T02:57:03.521Z,542.00
2023-05-09T02:58:13.502Z,545.00
2023-05-09T02:59:03.562Z,544.00
2023-05-09T03:00:03.586Z,545.00
2023-05-09T03:01:03.640Z,544.00
2023-05-09T03:02:03.583Z,543.00
2023-05-09T03:03:03.647Z,541.00
2023-05-09T03:04:03.574Z,541.00
2023-05-09T03:05:03.588Z,542.00
2023-05-09T03:06:03.572Z,541.00
2023-05-09T03:07:03.702Z,541.00
2023-05-09T03:08:03.600Z,542.00
2023-05-09T03:09:03.599Z,541.00
2023-05-09T03:10:03.598Z,542.00
2023-05-09T03:11:03.615Z,542.00
2023-05-09T03:12:03.618Z,540.00
2023-05-09T03:13:03.644Z,540.00
2023-05-09T03:14:03.638Z,538.00
2023-05-09T03:15:03.618Z,537.00
2023-05-09T03:16:03.644Z,535.00
2023-05-09T03:17:03.630Z,538.00
2023-05-09T03:18:03.710Z,537.00
2023-05-09T03:19:03.639Z,534.00
2023-05-09T03:20:04.528Z,534.00
2023-05-09T03:21:03.641Z,535.00
2023-05-09T03:22:03.646Z,535.00
2023-05-09T03:23:03.802Z,538.00
2023-05-09T03:24:03.653Z,541.00
2023-05-09T03:25:03.654Z,540.00
2023-05-09T03:26:03.654Z,537.00
2023-05-09T03:27:03.678Z,535.00
2023-05-09T03:28:03.663Z,538.00
2023-05-09T03:29:03.670Z,539.00
2023-05-09T03:30:03.672Z,539.00
2023-05-09T03:31:03.706Z,539.00
2023-05-09T03:32:03.728Z,538.00
2023-05-09T03:33:03.784Z,537.00
2023-05-09T03:34:03.814Z,538.00
2023-05-09T03:35:03.838Z,538.00
2023-05-09T03:36:03.885Z,539.00
2023-05-09T03:37:03.941Z,540.00
2023-05-09T03:38:03.986Z,541.00
2023-05-09T03:39:04.156Z,541.00
2023-05-09T03:40:04.113Z,541.00
2023-05-09T03:41:04.144Z,540.00
2023-05-09T03:42:04.199Z,540.00
2023-05-09T03:43:04.232Z,540.00
2023-05-09T03:44:04.280Z,539.00
2023-05-09T03:45:04.347Z,537.00
2023-05-09T03:46:04.368Z,538.00
2023-05-09T03:47:04.508Z,536.00
2023-05-09T03:48:04.513Z,538.00
2023-05-09T03:49:04.516Z,538.00
2023-05-09T03:50:04.572Z,538.00
2023-05-09T03:51:04.598Z,537.00
2023-05-09T03:52:04.667Z,536.00
2023-05-09T03:53:04.689Z,537.00
2023-05-09T03:54:04.741Z,537.00
2023-05-09T03:55:04.928Z,538.00
2023-05-09T03:56:04.835Z,536.00
2023-05-09T03:57:04.896Z,533.00
2023-05-09T03:58:04.945Z,533.00
2023-05-09T03:59:04.995Z,532.00
2023-05-09T04:00:05.056Z,529.00
2023-05-09T04:01:05.121Z,530.00
2023-05-09T04:02:05.198Z,530.00
2023-05-09T04:03:05.327Z,534.00
2023-05-09T04:04:05.337Z,536.00
2023-05-09T04:05:05.308Z,535.00
2023-05-09T04:06:05.358Z,537.00
2023-05-09T04:07:05.406Z,537.00
2023-05-09T04:08:05.464Z,537.00
2023-05-09T04:09:05.545Z,536.00
2023-05-09T04:10:05.562Z,534.00
2023-05-09T04:11:05.739Z,539.00
2023-05-09T04:12:05.653Z,540.00
2023-05-09T04:13:05.759Z,541.00
2023-05-09T04:14:05.760Z,540.00
2023-05-09T04:15:05.867Z,538.00
2023-05-09T04:16:05.856Z,536.00
2023-05-09T04:17:06.078Z,535.00
2023-05-09T04:18:06.003Z,535.00
2023-05-09T04:19:06.043Z,532.00
2023-05-09T04:20:06.052Z,531.00
2023-05-09T04:21:06.119Z,529.00
2023-05-09T04:22:06.150Z,529.00
2023-05-09T04:23:06.186Z,530.00
2023-05-09T04:24:06.233Z,532.00
2023-05-09T04:25:06.287Z,534.00
2023-05-09T04:26:06.380Z,535.00
2023-05-09T04:27:06.502Z,535.00
2023-05-09T04:28:06.426Z,530.00
2023-05-09T04:29:06.509Z,532.00
2023-05-09T04:30:06.533Z,532.00
2023-05-09T04:31:06.650Z,530.00
2023-05-09T04:32:07.075Z,531.00
2023-05-09T04:33:07.031Z,533.00
2023-05-09T04:34:06.995Z,531.00
2023-05-09T04:35:06.998Z,530.00
2023-05-09T04:36:07.556Z,531.00
2023-05-09T04:37:07.001Z,532.00
2023-05-09T04:38:07.010Z,535.00
2023-05-09T04:39:06.999Z,534.00
2023-05-09T04:40:06.995Z,533.00
2023-05-09T04:41:07.039Z,534.00
2023-05-09T04:42:07.105Z,533.00
2023-05-09T04:43:07.280Z,533.00
2023-05-09T04:44:07.194Z,532.00
2023-05-09T04:45:07.274Z,531.00
2023-05-09T04:46:07.317Z,533.00
2023-05-09T04:47:07.339Z,533.00
2023-05-09T04:48:07.407Z,532.00
2023-05-09T04:49:07.432Z,530.00
2023-05-09T04:50:07.490Z,528.00
2023-05-09T04:51:07.536Z,525.00
2023-05-09T04:52:07.580Z,522.00
2023-05-09T04:53:07.628Z,520.00
2023-05-09T04:54:07.683Z,518.00
2023-05-09T04:55:08.168Z,519.00
2023-05-09T04:56:08.111Z,521.00
2023-05-09T04:57:17.233Z,521.00
2023-05-09T04:58:08.104Z,521.00
2023-05-09T04:59:08.232Z,523.00
2023-05-09T05:00:08.107Z,525.00
2023-05-09T05:01:08.116Z,526.00
2023-05-09T05:02:08.150Z,525.00
2023-05-09T05:03:08.164Z,526.00
2023-05-09T05:04:08.270Z,525.00
2023-05-09T05:05:11.924Z,524.00
2023-05-09T05:06:08.112Z,524.00
2023-05-09T05:07:08.112Z,522.00
2023-05-09T05:08:08.115Z,520.00
2023-05-09T05:09:08.110Z,517.00
2023-05-09T05:10:08.121Z,518.00
2023-05-09T05:11:08.105Z,519.00
2023-05-09T05:12:09.400Z,516.00
2023-05-09T05:13:08.176Z,516.00
2023-05-09T05:14:08.104Z,517.00
2023-05-09T05:15:08.239Z,518.00
2023-05-09T05:16:08.124Z,520.00
2023-05-09T05:17:08.101Z,519.00
2023-05-09T05:18:08.208Z,519.00
2023-05-09T05:19:08.569Z,516.00
2023-05-09T05:20:08.102Z,516.00
2023-05-09T05:21:08.108Z,515.00
2023-05-09T05:22:08.104Z,516.00
2023-05-09T05:23:08.577Z,517.00
2023-05-09T05:24:08.106Z,513.00
2023-05-09T05:25:08.107Z,516.00
2023-05-09T05:26:08.104Z,517.00
2023-05-09T05:27:08.109Z,518.00
2023-05-09T05:28:08.117Z,519.00
2023-05-09T05:29:08.120Z,522.00
2023-05-09T05:30:08.117Z,526.00
2023-05-09T05:31:08.263Z,529.00
2023-05-09T05:32:08.577Z,530.00
2023-05-09T05:33:08.163Z,532.00
2023-05-09T05:34:08.109Z,535.00
2023-05-09T05:35:08.115Z,536.00
2023-05-09T05:36:08.568Z,536.00
2023-05-09T05:37:08.126Z,536.00
2023-05-09T05:38:08.588Z,537.00
2023-05-09T05:39:08.101Z,535.00
2023-05-09T05:40:08.168Z,536.00
2023-05-09T05:41:09.180Z,537.00
2023-05-09T05:42:08.224Z,539.00
2023-05-09T05:43:08.611Z,540.00
2023-05-09T05:44:08.346Z,543.00
2023-05-09T05:45:08.369Z,546.00
2023-05-09T05:46:08.445Z,548.00
2023-05-09T05:47:40.420Z,551.00
2023-05-09T05:48:08.535Z,553.00
2023-05-09T05:49:08.483Z,556.00
2023-05-09T05:50:08.467Z,558.00
2023-05-09T05:51:08.464Z,563.00
2023-05-09T05:52:08.469Z,566.00
2023-05-09T12:41:49.788Z,587.00
2023-05-09T12:42:41.023Z,592.00
2023-05-09T12:43:40.993Z,590.00
2023-05-09T12:44:40.970Z,591.00
2023-05-09T12:45:40.967Z,589.00
2023-05-09T12:46:40.953Z,587.00
2023-05-09T12:47:40.927Z,586.00
2023-05-09T12:48:40.885Z,588.00
2023-05-09T12:49:40.852Z,589.00
2023-05-09T12:50:41.315Z,590.00
2023-05-09T12:51:40.817Z,590.00
2023-05-09T12:52:50.706Z,586.00
2023-05-09T12:53:40.778Z,588.00
2023-05-09T12:54:41.006Z,589.00
2023-05-09T12:55:40.854Z,587.00
2023-05-09T12:56:40.693Z,583.00
2023-05-09T12:57:40.801Z,582.00
2023-05-09T12:58:40.686Z,581.00
2023-05-09T12:59:40.629Z,581.00
2023-05-09T13:00:40.619Z,583.00
2023-05-09T13:01:40.573Z,584.00
2023-05-09T13:02:40.660Z,588.00
2023-05-09T13:03:40.518Z,590.00
2023-05-09T13:04:40.823Z,590.00
2023-05-09T13:05:40.853Z,589.00
2023-05-09T13:06:40.872Z,588.00
2023-05-09T13:07:40.428Z,592.00
2023-05-09T13:08:40.402Z,593.00
2023-05-09T13:09:40.385Z,593.00
2023-05-09T13:10:40.357Z,592.00
2023-05-09T13:11:40.853Z,592.00
2023-05-09T13:12:40.330Z,590.00
2023-05-09T13:13:40.397Z,590.00
2023-05-09T13:14:40.393Z,590.00
2023-05-09T13:15:40.329Z,591.00
2023-05-09T13:16:40.238Z,589.00
2023-05-09T13:17:40.224Z,588.00
2023-05-09T13:18:40.183Z,590.00
2023-05-09T13:19:40.130Z,593.00
2023-05-09T13:20:40.104Z,594.00
2023-05-09T13:21:40.411Z,592.00
2023-05-09T13:22:40.134Z,594.00
2023-05-09T13:23:40.158Z,595.00
2023-05-09T13:24:40.167Z,597.00
2023-05-09T13:25:40.218Z,601.00
2023-05-09T13:26:40.227Z,603.00
2023-05-09T13:27:40.293Z,603.00
2023-05-09T13:28:40.259Z,603.00
2023-05-09T13:29:40.404Z,601.00
2023-05-09T13:30:40.363Z,599.00
2023-05-09T13:31:40.332Z,600.00
2023-05-09T13:32:40.867Z,600.00
2023-05-09T13:33:40.347Z,602.00
2023-05-09T13:34:40.392Z,603.00
2023-05-09T13:35:40.404Z,605.00
2023-05-09T13:36:40.418Z,607.00
2023-05-09T13:37:40.450Z,608.00
2023-05-09T13:38:40.548Z,607.00
2023-05-09T13:39:40.460Z,606.00
2023-05-09T13:40:40.840Z,608.00
2023-05-09T13:41:40.834Z,607.00
2023-05-09T13:42:40.501Z,607.00
2023-05-09T13:43:40.527Z,605.00
2023-05-09T13:44:40.533Z,605.00
2023-05-09T13:45:40.969Z,604.00
2023-05-09T13:46:40.762Z,608.00
2023-05-09T13:47:40.633Z,607.00
2023-05-09T13:48:40.609Z,608.00
2023-05-09T13:49:40.626Z,608.00
2023-05-09T13:50:40.644Z,611.00
2023-05-09T13:51:40.661Z,612.00
2023-05-09T13:52:40.675Z,612.00
2023-05-09T13:53:40.692Z,610.00
2023-05-09T13:54:40.721Z,611.00
2023-05-09T13:55:40.732Z,614.00
2023-05-09T13:56:40.752Z,615.00
2023-05-09T13:57:40.774Z,616.00
2023-05-09T13:58:40.794Z,615.00
2023-05-09T13:59:40.857Z,613.00
2023-05-09T14:00:40.831Z,613.00
2023-05-09T14:01:41.028Z,613.00
2023-05-09T14:02:40.870Z,615.00
2023-05-09T14:03:40.896Z,616.00
2023-05-09T14:04:40.876Z,619.00
2023-05-09T14:05:40.902Z,619.00
2023-05-09T14:06:40.904Z,617.00
2023-05-09T14:07:40.939Z,614.00
2023-05-09T14:08:40.959Z,614.00
2023-05-09T14:09:40.959Z,613.00
2023-05-09T14:10:40.997Z,611.00
2023-05-09T14:11:41.001Z,611.00
2023-05-09T14:12:41.030Z,611.00
2023-05-09T14:13:41.566Z,610.00
2023-05-09T14:14:41.040Z,611.00
2023-05-09T14:15:41.199Z,611.00
2023-05-09T14:16:41.071Z,610.00
2023-05-09T14:17:41.299Z,609.00
2023-05-09T14:18:41.112Z,611.00
2023-05-09T14:19:41.114Z,612.00
2023-05-09T14:20:41.137Z,613.00
2023-05-09T14:21:41.146Z,615.00
2023-05-09T14:22:41.163Z,614.00
2023-05-09T14:23:41.187Z,612.00
2023-05-09T14:24:41.201Z,611.00
2023-05-09T14:25:41.217Z,613.00
2023-05-09T14:26:41.223Z,615.00
2023-05-09T14:27:41.258Z,616.00
2023-05-09T14:28:42.047Z,616.00
2023-05-09T14:29:41.534Z,615.00
2023-05-09T14:30:41.272Z,610.00
2023-05-09T14:31:41.352Z,609.00
2023-05-09T14:32:41.280Z,604.00
2023-05-09T14:33:41.428Z,605.00
2023-05-09T14:34:41.309Z,603.00
2023-05-09T14:35:41.849Z,607.00
2023-05-09T14:36:41.339Z,607.00
2023-05-09T14:37:41.361Z,607.00
2023-05-09T14:38:41.376Z,607.00
2023-05-09T14:39:41.379Z,609.00
2023-05-09T14:40:41.388Z,609.00
2023-05-09T14:41:41.405Z,612.00
2023-05-09T14:42:41.431Z,612.00
2023-05-09T14:43:41.430Z,613.00
2023-05-09T14:44:41.674Z,615.00
2023-05-09T14:45:41.487Z,616.00
2023-05-09T14:46:41.554Z,613.00
2023-05-09T14:47:41.593Z,611.00
2023-05-09T14:48:41.496Z,609.00
2023-05-09T14:49:41.627Z,609.00
2023-05-09T14:50:41.501Z,608.00
2023-05-09T14:51:41.519Z,608.00
2023-05-09T14:52:41.516Z,608.00
2023-05-09T14:53:41.553Z,607.00
2023-05-09T14:54:41.546Z,607.00
2023-05-09T14:55:41.551Z,609.00
2023-05-09T14:56:41.550Z,611.00
2023-05-09T14:57:41.572Z,611.00
2023-05-09T14:58:41.592Z,609.00
2023-05-09T14:59:41.637Z,609.00
2023-05-09T15:00:41.664Z,612.00
2023-05-09T15:01:41.672Z,610.00
2023-05-09T15:02:41.639Z,609.00
2023-05-09T15:03:41.679Z,610.00
2023-05-09T15:04:41.658Z,610.00
2023-05-09T15:05:41.983Z,609.00
2023-05-09T15:06:41.657Z,611.00
2023-05-09T15:07:41.673Z,611.00
2023-05-09T15:08:41.678Z,610.00
2023-05-09T15:09:41.872Z,609.00
2023-05-09T15:10:41.693Z,610.00
2023-05-09T15:12:40.710Z,610.00
2023-05-09T15:13:42.369Z,610.00
2023-05-09T15:14:41.620Z,611.00
2023-05-09T15:15:41.608Z,609.00
2023-05-09T15:16:41.652Z,606.00
2023-05-09T15:17:41.546Z,607.00
2023-05-09T15:18:41.523Z,607.00
2023-05-09T15:19:41.488Z,608.00
2023-05-09T15:20:41.466Z,609.00
2023-05-09T15:21:41.581Z,607.00
2023-05-09T15:22:41.415Z,606.00
2023-05-09T15:23:41.385Z,607.00
2023-05-09T15:24:41.359Z,609.00
2023-05-09T15:25:41.398Z,609.00
2023-05-09T15:26:41.313Z,612.00
2023-05-09T15:27:41.288Z,614.00
2023-05-09T15:28:41.263Z,613.00
2023-05-09T15:29:41.248Z,613.00
2023-05-09T15:30:41.319Z,612.00
2023-05-09T15:31:41.182Z,613.00
2023-05-09T15:32:41.310Z,612.00
2023-05-09T15:33:41.143Z,613.00
2023-05-09T15:34:41.104Z,612.00
2023-05-09T15:35:41.104Z,612.00
2023-05-09T15:36:41.073Z,611.00
2023-05-09T15:37:41.217Z,611.00
2023-05-09T15:38:41.083Z,608.00
2023-05-09T15:39:41.080Z,606.00
2023-05-09T15:40:41.094Z,609.00
2023-05-09T15:41:41.086Z,611.00
2023-05-09T15:42:41.084Z,613.00
2023-05-09T15:43:41.087Z,615.00
2023-05-09T15:44:41.091Z,614.00
2023-05-09T15:45:41.126Z,616.00
2023-05-09T15:46:41.380Z,616.00
2023-05-09T15:47:41.185Z,614.00
2023-05-09T15:48:41.190Z,612.00
2023-05-09T15:49:41.121Z,611.00
2023-05-09T15:50:41.126Z,610.00
2023-05-09T15:51:41.134Z,609.00
2023-05-09T15:52:41.128Z,609.00
2023-05-09T15:53:41.294Z,610.00
2023-05-09T15:54:41.224Z,612.00
2023-05-09T15:55:41.139Z,609.00
2023-05-09T15:56:41.143Z,609.00
2023-05-09T15:57:41.131Z,608.00
2023-05-09T15:58:41.147Z,606.00
2023-05-09T15:59:41.135Z,608.00
2023-05-09T16:00:41.127Z,609.00
2023-05-09T16:01:41.192Z,607.00
2023-05-09T16:02:41.187Z,606.00
2023-05-09T16:03:41.192Z,606.00
2023-05-09T16:04:41.116Z,605.00
2023-05-09T16:05:41.177Z,606.00
2023-05-09T16:06:41.102Z,605.00
2023-05-09T16:07:41.098Z,605.00
2023-05-09T16:08:41.089Z,606.00
2023-05-09T16:09:41.530Z,607.00
2023-05-09T16:10:41.084Z,607.00
2023-05-09T16:11:41.072Z,606.00
2023-05-09T16:12:41.181Z,607.00
2023-05-09T16:13:41.062Z,609.00
2023-05-09T16:14:41.072Z,611.00
2023-05-09T16:15:41.119Z,611.00
2023-05-09T16:16:41.118Z,611.00
2023-05-09T16:17:41.020Z,610.00
2023-05-09T16:18:41.008Z,609.00
2023-05-09T16:19:41.000Z,610.00
2023-05-09T16:20:40.987Z,610.00
2023-05-09T16:21:41.079Z,610.00
2023-05-09T16:22:40.978Z,609.00
2023-05-09T16:23:40.957Z,608.00
2023-05-09T16:24:40.935Z,607.00
2023-05-09T16:25:41.132Z,607.00
2023-05-09T16:26:40.945Z,604.00
2023-05-09T16:27:40.938Z,604.00
2023-05-09T16:28:40.904Z,606.00
2023-05-09T16:29:40.902Z,606.00
2023-05-09T16:30:40.941Z,605.00
2023-05-09T16:31:40.934Z,606.00
2023-05-09T16:32:40.923Z,607.00
2023-05-09T16:33:40.871Z,605.00
2023-05-09T16:34:40.902Z,605.00
2023-05-09T16:35:40.856Z,603.00
2023-05-09T16:36:40.855Z,605.00
2023-05-09T16:37:40.851Z,607.00
2023-05-09T16:38:40.843Z,606.00
2023-05-09T16:39:40.833Z,607.00
2023-05-09T16:40:40.824Z,608.00
2023-05-09T16:41:40.963Z,608.00
2023-05-09T16:42:42.215Z,610.00
2023-05-09T16:43:40.807Z,609.00
2023-05-09T16:44:40.739Z,609.00
2023-05-09T16:45:40.762Z,605.00
2023-05-09T16:46:40.676Z,604.00
2023-05-09T16:47:40.659Z,604.00
2023-05-09T16:48:40.607Z,604.00
2023-05-09T16:49:40.570Z,604.00
2023-05-09T16:50:40.546Z,607.00
2023-05-09T16:51:40.503Z,606.00
2023-05-09T16:52:40.475Z,607.00
2023-05-09T16:53:40.450Z,606.00
2023-05-09T16:54:40.454Z,601.00
2023-05-09T16:55:40.441Z,599.00
2023-05-09T16:56:40.444Z,600.00
2023-05-09T16:57:40.574Z,603.00
2023-05-09T16:58:40.441Z,602.00
2023-05-09T16:59:40.453Z,601.00
2023-05-09T17:00:40.448Z,603.00
2023-05-09T17:01:40.475Z,603.00
2023-05-09T17:02:40.506Z,600.00
2023-05-09T17:03:40.457Z,602.00
2023-05-09T17:04:40.525Z,600.00
2023-05-09T17:05:40.477Z,601.00
2023-05-09T17:06:40.056Z,602.00
2023-05-09T17:07:40.009Z,602.00
2023-05-09T17:08:39.975Z,602.00
2023-05-09T17:09:39.950Z,598.00
2023-05-09T17:10:41.521Z,600.00
2023-05-09T17:11:39.885Z,601.00
2023-05-09T17:12:39.858Z,601.00
2023-05-09T17:13:39.966Z,602.00
2023-05-09T17:14:39.800Z,600.00
2023-05-09T17:15:39.776Z,600.00
2023-05-09T17:16:39.828Z,599.00
2023-05-09T17:17:39.741Z,599.00
2023-05-09T17:18:39.756Z,599.00
2023-05-09T17:19:39.683Z,599.00
2023-05-09T17:20:39.730Z,597.00
2023-05-09T17:21:39.641Z,598.00
2023-05-09T17:22:39.589Z,599.00
2023-05-09T17:23:39.559Z,600.00
2023-05-09T17:24:39.540Z,601.00
2023-05-09T17:25:39.518Z,602.00
2023-05-09T17:26:39.493Z,604.00
2023-05-09T17:27:39.466Z,602.00
2023-05-09T17:28:39.469Z,600.00
2023-05-09T17:29:39.590Z,602.00
2023-05-09T17:30:39.468Z,604.00
2023-05-09T17:31:39.467Z,605.00
2023-05-09T17:32:39.502Z,604.00
2023-05-09T17:33:39.472Z,602.00
2023-05-09T17:34:39.474Z,601.00
2023-05-09T17:35:39.473Z,600.00
2023-05-09T17:36:39.476Z,599.00
2023-05-09T17:37:39.498Z,598.00
2023-05-09T17:38:39.498Z,600.00
2023-05-09T17:39:39.483Z,601.00
2023-05-09T17:40:39.473Z,604.00
2023-05-09T17:41:39.434Z,606.00
2023-05-09T17:42:39.036Z,603.00
2023-05-09T17:43:39.022Z,601.00
2023-05-09T17:44:38.987Z,598.00
2023-05-09T17:45:39.098Z,598.00
2023-05-09T17:46:39.079Z,597.00
2023-05-09T17:47:38.927Z,595.00
2023-05-09T17:48:38.895Z,596.00
2023-05-09T17:49:38.913Z,596.00
2023-05-09T17:50:38.923Z,595.00
2023-05-09T17:51:38.927Z,595.00
2023-05-09T17:52:38.929Z,595.00
2023-05-09T17:53:38.938Z,597.00
2023-05-09T17:54:38.951Z,597.00
2023-05-09T17:55:38.964Z,595.00
2023-05-09T17:56:38.971Z,594.00
2023-05-09T17:57:38.993Z,594.00
2023-05-09T17:58:38.984Z,592.00
2023-05-09T17:59:38.996Z,590.00
2023-05-09T18:00:39.007Z,589.00
2023-05-09T18:01:39.174Z,590.00
2023-05-09T18:02:39.070Z,589.00
2023-05-09T18:03:39.075Z,588.00
2023-05-09T18:04:39.051Z,587.00
2023-05-09T18:05:39.050Z,589.00
2023-05-09T18:06:39.051Z,588.00
2023-05-09T18:07:39.081Z,587.00
2023-05-09T18:08:39.445Z,587.00
2023-05-09T18:09:39.486Z,588.00
2023-05-09T18:10:39.495Z,588.00
2023-05-09T18:11:39.531Z,589.00
2023-05-09T18:12:39.489Z,592.00
2023-05-09T18:13:39.521Z,593.00
2023-05-09T18:14:39.490Z,593.00
2023-05-09T18:15:39.517Z,594.00
2023-05-09T18:16:39.516Z,592.00
2023-05-09T18:17:39.671Z,592.00
2023-05-09T18:18:39.508Z,589.00
2023-05-09T18:19:39.500Z,591.00
2023-05-09T18:20:39.496Z,591.00
2023-05-09T18:21:39.499Z,592.00
2023-05-09T18:22:39.496Z,591.00
2023-05-09T18:23:39.503Z,591.00
2023-05-09T18:24:39.515Z,591.00
2023-05-09T18:25:39.511Z,592.00
2023-05-09T18:26:39.504Z,591.00
2023-05-09T18:27:39.505Z,591.00
2023-05-09T18:28:39.525Z,590.00
2023-05-09T18:29:39.502Z,589.00
2023-05-09T18:30:39.514Z,590.00
2023-05-09T18:31:39.545Z,591.00
2023-05-09T18:32:39.529Z,592.00
2023-05-09T18:33:39.656Z,591.00
2023-05-09T18:34:39.578Z,592.00
2023-05-09T18:35:39.571Z,594.00
2023-05-09T18:36:39.604Z,598.00
2023-05-09T18:37:39.616Z,597.00
2023-05-09T18:38:39.636Z,596.00
2023-05-09T18:39:39.663Z,597.00
2023-05-09T18:40:39.669Z,597.00
2023-05-09T18:41:39.697Z,597.00
2023-05-09T18:42:39.793Z,597.00
2023-05-09T18:43:39.730Z,598.00
2023-05-09T18:44:39.758Z,597.00
2023-05-09T18:45:39.780Z,594.00
2023-05-09T18:46:39.843Z,593.00
2023-05-09T18:47:39.860Z,591.00
2023-05-09T18:48:39.849Z,590.00
2023-05-09T18:49:39.976Z,590.00
2023-05-09T18:50:39.877Z,591.00
2023-05-09T18:51:39.902Z,592.00
2023-05-09T18:52:39.936Z,595.00
2023-05-09T18:53:39.947Z,595.00
2023-05-09T18:54:39.973Z,594.00
2023-05-09T18:55:39.992Z,594.00
2023-05-09T18:56:40.026Z,594.00
2023-05-09T18:57:40.027Z,592.00
2023-05-09T18:58:40.049Z,590.00
2023-05-09T18:59:40.073Z,589.00
2023-05-09T19:00:40.128Z,589.00
2023-05-09T19:01:40.486Z,589.00
2023-05-09T19:02:40.546Z,588.00
2023-05-09T19:03:40.610Z,588.00
2023-05-09T19:04:40.592Z,587.00
2023-05-09T19:05:40.652Z,587.00
2023-05-09T19:06:40.531Z,587.00
2023-05-09T19:07:40.533Z,588.00
2023-05-09T19:08:40.526Z,587.00
2023-05-09T19:09:40.544Z,585.00
2023-05-09T19:10:40.528Z,585.00
2023-05-09T19:11:40.542Z,584.00
2023-05-09T19:12:40.589Z,583.00
2023-05-09T19:13:40.806Z,583.00
2023-05-09T19:14:40.544Z,581.00
2023-05-09T19:15:40.528Z,582.00
2023-05-09T19:16:40.579Z,582.00
2023-05-09T19:17:40.586Z,581.00
2023-05-09T19:18:40.530Z,579.00